« Back
NWS Peachtree City, Ga » Text Product » MCN Terminal Aerodrome Forecast


Printer-friendly Version
Current Version              Previous Versions:   1  2  3  4  5  6  7  8  9  

Terminal Aerodrome Forecast

385
FTUS42 KFFC 050914 AAA
TAFMCN
TAF AMD
KMCN 050914Z 0509/0606 00000KT P6SM SKC
      TEMPO 0510/0511 6SM BR
     FM051500 24006KT P6SM SCT050 SCT250 PROB30 0519/0523 6SM TSRA
      BKN050CB
     FM060200 22003KT P6SM SCT070 BKN250=



USA.gov is the U.S. government's official web portal to all federal, state and local government web resources and services.